KEKO/EKO METAR and TAF weather

Enter ICAO airport designator
Station Type Date Time Source
KEKO METAR 2022/08/16 18:56 UTC NOAA

KEKO 161856Z AUTO VRB04KT 10SM CLR 29/02 A3012 RMK AO2 SLP138 T02940017


Station Type Date Time Source
KEKO Decoded METAR 2022/08/16 18:56 UTC NOAA

ELKO REGIONAL AIRPORT, NV, United States (KEKO) 40-50N 115-47W 1547M
Aug 16, 2022 - 02:56 PM EDT / 2022.08.16 1856 UTC
Wind: Variable at 5 MPH (4 KT):0
Visibility: 10 mile(s):0
Sky conditions: clear
Temperature: 84.9 F (29.4 C)
Dew Point: 35.1 F (1.7 C)
Relative Humidity: 16%
Pressure (altimeter): 30.12 in. Hg (1019 hPa)
ob: KEKO 161856Z AUTO VRB04KT 10SM CLR 29/02 A3012 RMK AO2 SLP138 T02940017
cycle: 19

Station Type Date Time Source
KEKO TAF 2022/08/16 18:30 UTC NOAA

TAF KEKO 161727Z 1618/1718 VRB03KT P6SM FEW120
FM162200 08008G18KT P6SM SCT120
FM170500 VRB06KT P6SM FEW150

Example: see airport list